createdAt,value
2023-12-09T00:00:24.701Z,10.43
2023-12-09T00:02:51.403Z,7.75
2023-12-09T00:05:17.982Z,6.30
2023-12-09T00:07:44.584Z,14.57
2023-12-09T00:10:11.214Z,8.75
2023-12-09T00:12:37.834Z,7.50
2023-12-09T00:15:04.879Z,6.03
2023-12-09T00:17:31.520Z,7.35
2023-12-09T00:19:58.151Z,10.70
2023-12-09T00:22:25.074Z,4.35
2023-12-09T00:24:51.839Z,9.15
2023-12-09T00:27:18.470Z,7.20
2023-12-09T00:29:45.094Z,7.47
2023-12-09T00:32:11.931Z,18.58
2023-12-09T00:34:38.501Z,16.40
2023-12-09T00:37:05.123Z,3.75
2023-12-09T00:39:31.779Z,3.95
2023-12-09T00:41:58.425Z,4.07
2023-12-09T00:44:24.986Z,4.78
2023-12-09T00:46:51.574Z,4.97
2023-12-09T00:49:18.363Z,2.88
2023-12-09T00:51:45.041Z,3.70
2023-12-09T00:54:11.665Z,3.60
2023-12-09T00:56:38.292Z,3.30
2023-12-09T00:59:04.957Z,3.28
2023-12-09T01:01:31.742Z,3.17
2023-12-09T01:03:58.621Z,2.33
2023-12-09T01:06:25.586Z,1.58
2023-12-09T01:08:52.286Z,2.00
2023-12-09T01:11:18.931Z,1.77
2023-12-09T01:13:45.529Z,1.55
2023-12-09T01:16:12.299Z,2.33
2023-12-09T01:18:39.177Z,1.98
2023-12-09T01:21:06.222Z,1.65
2023-12-09T01:23:32.866Z,1.80
2023-12-09T01:25:59.462Z,1.13
2023-12-09T01:28:26.035Z,1.88
2023-12-09T01:30:52.617Z,1.40
2023-12-09T01:33:19.354Z,1.42
2023-12-09T01:35:46.027Z,1.10
2023-12-09T01:38:12.617Z,0.80
2023-12-09T01:40:39.166Z,1.00
2023-12-09T01:43:09.627Z,1.48
2023-12-09T01:45:36.264Z,0.80
2023-12-09T01:48:04.699Z,1.10
2023-12-09T01:50:31.660Z,1.02
2023-12-09T01:52:59.229Z,0.88
2023-12-09T01:55:26.040Z,1.42
2023-12-09T01:57:53.959Z,0.50
2023-12-09T02:00:22.295Z,0.67
2023-12-09T02:02:49.469Z,0.70
2023-12-09T02:05:16.392Z,0.93
2023-12-09T02:07:43.083Z,0.80
2023-12-09T02:10:09.905Z,0.50
2023-12-09T02:12:46.968Z,0.95
2023-12-09T02:15:25.361Z,0.60
2023-12-09T02:17:58.464Z,0.40
2023-12-09T02:20:25.819Z,0.40
2023-12-09T02:23:08.472Z,0.60
2023-12-09T02:25:36.690Z,0.63
2023-12-09T02:28:13.339Z,0.50
2023-12-09T02:30:50.349Z,0.43
2023-12-09T02:33:18.965Z,0.73
2023-12-09T02:35:48.638Z,0.50
2023-12-09T02:38:17.286Z,0.40
2023-12-09T02:40:44.767Z,0.75
2023-12-09T02:43:11.552Z,0.50
2023-12-09T02:45:38.424Z,0.70
2023-12-09T02:48:05.530Z,1.02
2023-12-09T02:50:32.283Z,0.90
2023-12-09T02:52:58.984Z,1.13
2023-12-09T02:55:25.534Z,1.33
2023-12-09T02:57:52.124Z,1.40
2023-12-09T03:00:18.868Z,1.20
2023-12-09T03:02:45.537Z,1.30
2023-12-09T03:05:12.296Z,1.42
2023-12-09T03:07:38.927Z,2.03
2023-12-09T03:10:05.800Z,2.42
2023-12-09T03:12:32.494Z,3.08
2023-12-09T03:14:59.153Z,4.68
2023-12-09T03:17:25.853Z,4.07
2023-12-09T03:19:52.554Z,4.30
2023-12-09T03:22:19.345Z,4.97
2023-12-09T03:24:45.939Z,3.67
2023-12-09T03:27:12.554Z,4.20
2023-12-09T03:29:39.130Z,3.60
2023-12-09T03:32:05.909Z,5.15
2023-12-09T03:34:32.646Z,4.75
2023-12-09T03:36:59.453Z,4.63
2023-12-09T03:39:26.155Z,5.22
2023-12-09T03:41:52.873Z,5.78
2023-12-09T03:44:19.523Z,7.75
2023-12-09T03:46:46.168Z,6.47
2023-12-09T03:49:13.010Z,6.53
2023-12-09T03:51:39.815Z,6.45
2023-12-09T03:54:06.500Z,5.32
2023-12-09T03:56:33.289Z,3.60
2023-12-09T03:59:00.003Z,2.58
2023-12-09T04:01:26.700Z,3.42
2023-12-09T04:03:53.460Z,3.10
2023-12-09T04:06:20.148Z,3.88
2023-12-09T04:08:46.867Z,5.72
2023-12-09T04:11:13.421Z,6.93
2023-12-09T04:13:41.543Z,6.22
2023-12-09T04:16:08.589Z,6.03
2023-12-09T04:18:35.476Z,4.90
2023-12-09T04:21:02.191Z,3.92
2023-12-09T04:23:28.851Z,3.95
2023-12-09T04:25:55.488Z,3.47
2023-12-09T04:28:22.100Z,3.15
2023-12-09T04:30:48.732Z,3.67
2023-12-09T04:33:15.398Z,3.95
2023-12-09T04:35:42.070Z,4.00
2023-12-09T04:38:08.652Z,2.75
2023-12-09T04:40:35.277Z,2.45
2023-12-09T04:43:01.872Z,2.25
2023-12-09T04:45:28.504Z,2.80
2023-12-09T04:47:55.418Z,2.47
2023-12-09T04:50:22.177Z,2.28
2023-12-09T04:52:48.773Z,2.50
2023-12-09T04:55:15.564Z,3.33
2023-12-09T04:57:42.250Z,2.80
2023-12-09T05:00:09.400Z,3.85
2023-12-09T05:02:36.035Z,5.00
2023-12-09T05:05:02.645Z,4.15
2023-12-09T05:07:29.321Z,4.53
2023-12-09T05:09:56.101Z,5.65
2023-12-09T05:12:22.872Z,5.07
2023-12-09T05:14:49.565Z,5.70
2023-12-09T05:17:16.856Z,6.05
2023-12-09T05:19:43.503Z,5.53
2023-12-09T05:22:10.194Z,5.53
2023-12-09T05:24:36.822Z,6.30
2023-12-09T05:27:03.644Z,4.88
2023-12-09T05:29:30.302Z,5.10
2023-12-09T05:31:56.966Z,5.05
2023-12-09T05:34:23.671Z,3.97
2023-12-09T05:36:50.307Z,6.20
2023-12-09T05:39:16.933Z,6.32
2023-12-09T05:41:43.616Z,6.47
2023-12-09T05:44:10.221Z,6.18
2023-12-09T05:46:36.890Z,4.97
2023-12-09T05:49:04.250Z,5.35
2023-12-09T05:51:31.185Z,5.65
2023-12-09T05:53:57.959Z,5.75
2023-12-09T05:56:24.676Z,5.50
2023-12-09T05:58:51.247Z,5.43
2023-12-09T06:01:17.934Z,6.00
2023-12-09T06:03:44.657Z,5.35
2023-12-09T06:06:11.620Z,3.83
2023-12-09T06:08:38.321Z,4.00
2023-12-09T06:11:05.046Z,4.57
2023-12-09T06:13:32.403Z,5.40
2023-12-09T06:15:59.078Z,5.07
2023-12-09T06:18:26.367Z,5.32
2023-12-09T06:20:52.953Z,3.97
2023-12-09T06:23:19.552Z,3.63
2023-12-09T06:25:46.214Z,2.75
2023-12-09T06:28:12.897Z,2.58
2023-12-09T06:30:39.571Z,2.50
2023-12-09T06:33:06.484Z,2.70
2023-12-09T06:35:33.202Z,1.90
2023-12-09T06:37:59.816Z,2.17
2023-12-09T06:40:26.364Z,2.40
2023-12-09T06:42:52.975Z,2.03
2023-12-09T06:45:19.756Z,2.00
2023-12-09T06:47:46.518Z,1.92
2023-12-09T06:50:13.168Z,2.13
2023-12-09T06:52:39.910Z,2.30
2023-12-09T06:55:06.914Z,1.77
2023-12-09T06:57:33.588Z,2.20
2023-12-09T07:00:00.242Z,2.40
2023-12-09T07:02:33.923Z,1.90
2023-12-09T07:05:07.152Z,2.20
2023-12-09T07:07:33.840Z,2.50
2023-12-09T07:10:00.480Z,2.38
2023-12-09T07:12:27.223Z,2.67
2023-12-09T07:14:54.005Z,2.08
2023-12-09T07:17:20.609Z,2.38
2023-12-09T07:19:47.372Z,2.55
2023-12-09T07:22:14.099Z,2.00
2023-12-09T07:24:40.898Z,3.30
2023-12-09T07:27:07.677Z,3.53
2023-12-09T07:29:34.247Z,2.70
2023-12-09T07:32:01.037Z,2.17
2023-12-09T07:34:28.060Z,2.25
2023-12-09T07:36:54.728Z,2.25
2023-12-09T07:39:21.405Z,3.17
2023-12-09T07:41:47.992Z,3.63
2023-12-09T07:44:14.606Z,3.95
2023-12-09T07:46:41.186Z,5.00
2023-12-09T07:49:07.899Z,5.90
2023-12-09T07:51:34.776Z,6.82
2023-12-09T07:54:01.565Z,5.93
2023-12-09T07:56:28.202Z,5.85
2023-12-09T07:58:54.816Z,5.68
2023-12-09T08:01:21.463Z,5.95
2023-12-09T08:03:48.161Z,6.30
2023-12-09T08:06:14.932Z,5.75
2023-12-09T08:08:41.704Z,4.63
2023-12-09T08:11:08.372Z,4.22
2023-12-09T08:13:35.039Z,4.55
2023-12-09T08:16:01.628Z,3.58
2023-12-09T08:18:28.490Z,2.75
2023-12-09T08:20:55.211Z,2.83
2023-12-09T08:23:21.826Z,3.30
2023-12-09T08:25:48.573Z,2.03
2023-12-09T08:28:15.210Z,3.53
2023-12-09T08:30:41.873Z,2.85
2023-12-09T08:33:08.682Z,3.30
2023-12-09T08:35:36.120Z,6.20
2023-12-09T08:38:03.409Z,5.03
2023-12-09T08:40:30.039Z,4.82
2023-12-09T08:42:56.680Z,3.20
2023-12-09T08:45:23.362Z,2.10
2023-12-09T08:47:50.093Z,2.20
2023-12-09T08:52:46.325Z,4.13
2023-12-09T08:55:12.972Z,6.10
2023-12-09T08:57:39.688Z,6.90
2023-12-09T09:00:06.892Z,5.78
2023-12-09T09:02:33.470Z,5.20
2023-12-09T09:05:00.173Z,5.53
2023-12-09T09:07:26.877Z,4.70
2023-12-09T09:09:53.525Z,4.03
2023-12-09T09:12:20.284Z,3.92
2023-12-09T09:14:47.060Z,3.95
2023-12-09T09:17:13.711Z,4.00
2023-12-09T09:19:40.339Z,4.20
2023-12-09T09:22:06.943Z,5.07
2023-12-09T09:24:33.649Z,5.05
2023-12-09T09:27:00.338Z,4.35
2023-12-09T09:29:26.982Z,5.30
2023-12-09T09:31:53.659Z,5.53
2023-12-09T09:34:20.542Z,6.47
2023-12-09T09:36:47.280Z,8.20
2023-12-09T09:39:14.062Z,6.90
2023-12-09T09:42:03.446Z,6.55
2023-12-09T09:44:31.971Z,7.07
2023-12-09T09:46:58.673Z,7.00
2023-12-09T09:49:25.916Z,6.30
2023-12-09T09:51:57.468Z,6.82
2023-12-09T09:54:32.084Z,5.15
2023-12-09T09:56:59.351Z,4.28
2023-12-09T09:59:27.009Z,5.90
2023-12-09T10:01:53.744Z,4.90
2023-12-09T10:04:20.400Z,3.20
2023-12-09T10:06:48.758Z,3.20
2023-12-09T10:09:15.648Z,3.85
2023-12-09T10:11:42.273Z,4.90
2023-12-09T10:14:09.067Z,3.25
2023-12-09T10:16:36.539Z,3.30
2023-12-09T10:19:03.382Z,2.92
2023-12-09T10:21:30.298Z,3.00
2023-12-09T10:23:57.106Z,3.88
2023-12-09T10:26:23.795Z,3.58
2023-12-09T10:28:51.040Z,2.35
2023-12-09T10:31:17.861Z,2.42
2023-12-09T10:33:45.296Z,3.17
2023-12-09T10:36:12.136Z,2.42
2023-12-09T10:38:43.097Z,3.17
2023-12-09T10:41:12.963Z,4.05
2023-12-09T10:43:41.231Z,4.05
2023-12-09T10:46:09.331Z,4.25
2023-12-09T10:48:36.095Z,3.00
2023-12-09T10:51:02.985Z,3.50
2023-12-09T10:53:29.630Z,3.38
2023-12-09T10:55:56.652Z,4.60
2023-12-09T10:58:24.795Z,4.18
2023-12-09T11:00:52.264Z,3.88
2023-12-09T11:03:19.307Z,3.70
2023-12-09T11:05:49.958Z,3.33
2023-12-09T11:08:17.088Z,4.13
2023-12-09T11:10:45.551Z,3.63
2023-12-09T11:13:13.132Z,3.25
2023-12-09T11:15:39.842Z,3.03
2023-12-09T11:18:11.344Z,3.45
2023-12-09T11:20:39.929Z,3.00
2023-12-09T11:23:09.490Z,2.45
2023-12-09T11:25:39.486Z,2.13
2023-12-09T11:28:06.196Z,2.20
2023-12-09T11:30:38.349Z,2.80
2023-12-09T11:33:06.014Z,2.58
2023-12-09T11:35:36.941Z,2.57
2023-12-09T11:38:05.900Z,3.03
2023-12-09T11:40:33.741Z,3.13
2023-12-09T11:43:02.145Z,3.33
2023-12-09T11:45:28.969Z,3.33
2023-12-09T11:47:58.049Z,3.20
2023-12-09T11:50:25.382Z,3.72
2023-12-09T11:52:52.319Z,3.25
2023-12-09T11:55:21.991Z,3.17
2023-12-09T11:57:48.752Z,4.00
2023-12-09T12:00:15.648Z,4.18
2023-12-09T12:02:42.596Z,4.40
2023-12-09T12:05:10.481Z,4.47
2023-12-09T12:07:37.372Z,4.00
2023-12-09T12:10:08.903Z,4.75
2023-12-09T12:12:39.100Z,4.90
2023-12-09T12:15:06.227Z,6.32
2023-12-09T12:17:40.562Z,5.38
2023-12-09T12:20:09.410Z,5.53
2023-12-09T12:25:02.628Z,6.75
2023-12-09T12:27:34.166Z,7.50
2023-12-09T12:30:00.943Z,7.38
2023-12-09T12:32:28.031Z,7.72
2023-12-09T12:34:55.070Z,9.52
2023-12-09T12:37:21.853Z,8.55
2023-12-09T12:39:48.774Z,10.23
2023-12-09T12:42:15.556Z,8.45
2023-12-09T12:44:42.644Z,8.65
2023-12-09T12:47:09.373Z,9.38
2023-12-09T12:49:36.022Z,10.40
2023-12-09T12:52:02.756Z,9.85
2023-12-09T12:54:29.491Z,11.25
2023-12-09T12:56:56.165Z,10.23
2023-12-09T12:59:22.821Z,11.02
2023-12-09T13:01:49.465Z,11.48
2023-12-09T13:04:17.583Z,11.13
2023-12-09T13:06:44.540Z,10.48
2023-12-09T13:09:11.610Z,13.15
2023-12-09T13:11:38.284Z,10.13
2023-12-09T13:14:06.130Z,10.32
2023-12-09T13:16:32.852Z,10.13
2023-12-09T13:18:59.658Z,11.57
2023-12-09T13:21:26.392Z,9.93
2023-12-09T13:23:53.339Z,11.25
2023-12-09T13:26:20.112Z,10.90
2023-12-09T13:28:46.858Z,12.23
2023-12-09T13:31:13.560Z,11.43
2023-12-09T13:33:40.335Z,10.63
2023-12-09T13:36:07.807Z,11.20
2023-12-09T13:38:34.568Z,12.13
2023-12-09T13:41:01.174Z,12.45
2023-12-09T13:43:27.833Z,12.00
2023-12-09T13:45:54.542Z,10.55
2023-12-09T13:48:21.312Z,11.13
2023-12-09T13:50:48.538Z,11.45
2023-12-09T13:53:15.410Z,10.23
2023-12-09T13:55:42.041Z,12.70
2023-12-09T13:58:08.647Z,12.73
2023-12-09T14:00:35.596Z,10.48
2023-12-09T14:03:02.795Z,11.02
2023-12-09T14:05:29.646Z,9.77
2023-12-09T14:07:56.436Z,11.63
2023-12-09T14:10:23.218Z,9.93
2023-12-09T14:12:50.148Z,10.13
2023-12-09T14:15:17.110Z,9.57
2023-12-09T14:17:44.022Z,10.20
2023-12-09T14:20:11.745Z,9.60
2023-12-09T14:22:38.932Z,10.10
2023-12-09T14:25:06.097Z,9.65
2023-12-09T14:27:32.859Z,11.13
2023-12-09T14:29:59.633Z,11.73
2023-12-09T14:32:26.575Z,10.45
2023-12-09T14:34:53.599Z,10.52
2023-12-09T14:37:20.465Z,10.77
2023-12-09T14:39:47.230Z,9.05
2023-12-09T14:42:13.897Z,10.15
2023-12-09T14:44:40.598Z,10.07
2023-12-09T14:47:07.293Z,9.45
2023-12-09T14:49:34.050Z,10.30
2023-12-09T14:52:00.809Z,11.00
2023-12-09T14:54:27.504Z,9.68
2023-12-09T14:56:54.297Z,10.68
2023-12-09T14:59:21.166Z,11.10
2023-12-09T15:01:47.891Z,11.48
2023-12-09T15:04:14.571Z,10.73
2023-12-09T15:06:41.395Z,9.50
2023-12-09T15:09:08.148Z,11.13
2023-12-09T15:11:34.814Z,10.38
2023-12-09T15:14:01.470Z,10.98
2023-12-09T15:16:28.542Z,10.43
2023-12-09T15:18:55.604Z,11.43
2023-12-09T15:21:22.306Z,11.40
2023-12-09T15:23:49.265Z,11.43
2023-12-09T15:26:15.960Z,10.48
2023-12-09T15:28:42.601Z,10.32
2023-12-09T15:31:09.293Z,12.38
2023-12-09T15:33:36.449Z,11.27
2023-12-09T15:36:03.833Z,11.50
2023-12-09T15:38:30.797Z,11.00
2023-12-09T15:40:57.457Z,10.82
2023-12-09T15:43:24.126Z,10.57
2023-12-09T15:45:52.124Z,11.00
2023-12-09T15:48:20.020Z,11.10
2023-12-09T15:50:46.871Z,10.90
2023-12-09T15:53:13.483Z,10.57
2023-12-09T15:55:40.152Z,10.93
2023-12-09T15:58:06.972Z,11.15
2023-12-09T16:00:33.784Z,11.77
2023-12-09T16:03:00.966Z,12.65
2023-12-09T16:05:27.689Z,10.32
2023-12-09T16:07:54.405Z,10.00
2023-12-09T16:10:21.095Z,11.35
2023-12-09T16:12:47.882Z,11.95
2023-12-09T16:15:15.181Z,11.23
2023-12-09T16:17:42.174Z,11.05
2023-12-09T16:20:09.721Z,11.82
2023-12-09T16:22:36.466Z,11.02
2023-12-09T16:25:03.175Z,11.65
2023-12-09T16:27:29.919Z,13.23
2023-12-09T16:29:56.631Z,11.15
2023-12-09T16:32:23.275Z,10.52
2023-12-09T16:34:50.149Z,9.13
2023-12-09T16:37:16.815Z,8.65
2023-12-09T16:39:43.531Z,7.88
2023-12-09T16:42:10.227Z,6.13
2023-12-09T16:44:37.005Z,8.07
2023-12-09T16:47:03.950Z,6.70
2023-12-09T16:49:30.807Z,6.50
2023-12-09T16:51:57.863Z,6.55
2023-12-09T16:54:24.635Z,5.90
2023-12-09T16:56:51.325Z,6.35
2023-12-09T16:59:18.257Z,5.55
2023-12-09T17:01:44.974Z,5.45
2023-12-09T17:04:11.770Z,7.57
2023-12-09T17:06:38.531Z,5.43
2023-12-09T17:09:05.410Z,5.25
2023-12-09T17:11:32.036Z,6.28
2023-12-09T17:13:58.708Z,5.45
2023-12-09T17:16:25.432Z,6.43
2023-12-09T17:18:52.199Z,6.40
2023-12-09T17:21:18.924Z,6.43
2023-12-09T17:23:45.653Z,5.63
2023-12-09T17:26:12.383Z,4.90
2023-12-09T17:28:39.056Z,5.82
2023-12-09T17:31:05.733Z,4.53
2023-12-09T17:33:32.687Z,4.70
2023-12-09T17:35:59.460Z,4.55
2023-12-09T17:38:26.173Z,3.50
2023-12-09T17:40:52.788Z,3.88
2023-12-09T17:43:19.385Z,3.90
2023-12-09T17:45:46.091Z,3.55
2023-12-09T17:48:12.871Z,4.55
2023-12-09T17:50:39.585Z,3.72
2023-12-09T17:53:06.298Z,3.05
2023-12-09T17:55:32.992Z,4.50
2023-12-09T17:57:59.619Z,4.05
2023-12-09T18:00:26.373Z,3.72
2023-12-09T18:02:53.060Z,3.92
2023-12-09T18:05:19.733Z,3.55
2023-12-09T18:07:46.413Z,3.38
2023-12-09T18:10:15.043Z,4.03
2023-12-09T18:12:43.022Z,3.97
2023-12-09T18:15:09.952Z,4.05
2023-12-09T18:17:36.850Z,4.35
2023-12-09T18:20:04.103Z,4.72
2023-12-09T18:22:30.982Z,4.53
2023-12-09T18:24:57.755Z,5.25
2023-12-09T18:27:24.462Z,6.25
2023-12-09T18:29:51.113Z,6.72
2023-12-09T18:32:17.766Z,5.05
2023-12-09T18:34:44.786Z,5.63
2023-12-09T18:37:14.878Z,4.78
2023-12-09T18:39:41.489Z,5.15
2023-12-09T18:42:08.218Z,6.10
2023-12-09T18:44:34.941Z,5.28
2023-12-09T18:47:01.631Z,5.22
2023-12-09T18:49:28.362Z,4.78
2023-12-09T18:51:55.208Z,5.43
2023-12-09T18:54:21.831Z,5.20
2023-12-09T18:56:48.527Z,6.03
2023-12-09T18:59:17.602Z,5.22
2023-12-09T19:01:44.715Z,4.60
2023-12-09T19:04:11.763Z,4.63
2023-12-09T19:06:45.879Z,5.60
2023-12-09T19:09:20.586Z,5.32
2023-12-09T19:11:47.515Z,4.72
2023-12-09T19:14:14.451Z,5.28
2023-12-09T19:16:41.428Z,5.57
2023-12-09T19:19:08.279Z,4.82
2023-12-09T19:21:35.053Z,4.22
2023-12-09T19:24:01.663Z,6.07
2023-12-09T19:26:28.391Z,8.43
2023-12-09T19:28:55.145Z,4.53
2023-12-09T19:31:21.786Z,5.10
2023-12-09T19:33:48.442Z,4.32
2023-12-09T19:36:15.227Z,4.82
2023-12-09T19:38:41.866Z,5.55
2023-12-09T19:41:08.465Z,4.85
2023-12-09T19:43:35.146Z,4.90
2023-12-09T19:46:02.207Z,5.25
2023-12-09T19:48:28.968Z,5.20
2023-12-09T19:50:55.827Z,6.18
2023-12-09T19:53:22.521Z,5.97
2023-12-09T19:55:49.173Z,5.05
2023-12-09T19:58:15.846Z,4.85
2023-12-09T20:00:45.847Z,6.10
2023-12-09T20:03:12.708Z,5.45
2023-12-09T20:05:39.375Z,6.65
2023-12-09T20:08:06.096Z,6.30
2023-12-09T20:10:32.818Z,5.50
2023-12-09T20:12:59.465Z,7.35
2023-12-09T20:15:26.123Z,5.22
2023-12-09T20:17:52.838Z,6.40
2023-12-09T20:20:19.550Z,5.40
2023-12-09T20:22:46.161Z,5.85
2023-12-09T20:25:12.843Z,5.60
2023-12-09T20:27:39.521Z,5.88
2023-12-09T20:30:06.801Z,6.95
2023-12-09T20:32:33.587Z,5.50
2023-12-09T20:35:00.482Z,5.68
2023-12-09T20:37:27.096Z,5.80
2023-12-09T20:39:53.741Z,5.82
2023-12-09T20:42:20.404Z,6.32
2023-12-09T20:44:47.071Z,7.25
2023-12-09T20:47:13.721Z,4.80
2023-12-09T20:49:40.437Z,9.57
2023-12-09T20:52:07.153Z,9.32
2023-12-09T20:54:33.789Z,14.02
2023-12-09T20:57:01.107Z,10.80
2023-12-09T20:59:27.945Z,7.05
2023-12-09T21:01:55.154Z,5.68
2023-12-09T21:04:22.335Z,11.10
2023-12-09T21:06:49.222Z,7.70
2023-12-09T21:09:16.195Z,6.43
2023-12-09T21:11:43.711Z,6.43
2023-12-09T21:14:12.116Z,8.70
2023-12-09T21:16:38.723Z,6.28
2023-12-09T21:19:05.471Z,8.77
2023-12-09T21:21:32.248Z,9.02
2023-12-09T21:23:58.912Z,8.07
2023-12-09T21:26:25.599Z,7.05
2023-12-09T21:28:52.247Z,10.05
2023-12-09T21:31:18.985Z,6.90
2023-12-09T21:33:46.161Z,8.55
2023-12-09T21:36:17.033Z,8.88
2023-12-09T21:38:44.688Z,6.38
2023-12-09T21:41:22.467Z,6.00
2023-12-09T21:43:50.167Z,7.07
2023-12-09T21:46:20.715Z,5.72
2023-12-09T21:48:47.792Z,7.18
2023-12-09T21:51:14.546Z,6.57
2023-12-09T21:53:41.198Z,6.50
2023-12-09T21:56:08.313Z,7.45
2023-12-09T21:58:34.946Z,7.22
2023-12-09T22:01:01.665Z,7.45
2023-12-09T22:03:28.436Z,7.85
2023-12-09T22:05:55.154Z,6.88
2023-12-09T22:08:21.756Z,9.75
2023-12-09T22:10:48.429Z,8.57
2023-12-09T22:13:15.101Z,8.35
2023-12-09T22:15:41.871Z,9.15
2023-12-09T22:18:08.698Z,8.13
2023-12-09T22:20:35.392Z,7.88
2023-12-09T22:23:02.010Z,9.27
2023-12-09T22:25:28.670Z,9.20
2023-12-09T22:27:55.404Z,8.32
2023-12-09T22:30:22.080Z,9.00
2023-12-09T22:32:48.940Z,7.47
2023-12-09T22:35:15.665Z,9.07
2023-12-09T22:37:42.379Z,7.88
2023-12-09T22:40:09.555Z,8.80
2023-12-09T22:42:37.196Z,7.68
2023-12-09T22:45:05.134Z,7.57
2023-12-09T22:47:32.295Z,7.90
2023-12-09T22:49:59.099Z,7.28
2023-12-09T22:52:26.136Z,8.20
2023-12-09T22:54:52.936Z,8.13
2023-12-09T22:57:20.004Z,7.10
2023-12-09T22:59:46.738Z,7.75
2023-12-09T23:02:13.410Z,7.32
2023-12-09T23:04:40.072Z,7.25
2023-12-09T23:07:06.911Z,8.80
2023-12-09T23:09:33.611Z,8.23
2023-12-09T23:12:00.263Z,8.15
2023-12-09T23:14:27.025Z,6.95
2023-12-09T23:16:53.771Z,7.55
2023-12-09T23:19:20.526Z,7.20
2023-12-09T23:21:47.330Z,7.82
2023-12-09T23:24:14.073Z,8.07
2023-12-09T23:26:40.806Z,7.30
2023-12-09T23:29:08.536Z,8.55
2023-12-09T23:31:41.044Z,8.43
2023-12-09T23:34:08.748Z,8.90
2023-12-09T23:36:35.583Z,7.80
2023-12-09T23:39:02.313Z,7.22
2023-12-09T23:41:28.925Z,7.70
2023-12-09T23:43:55.546Z,7.95
2023-12-09T23:46:22.265Z,7.32
2023-12-09T23:48:49.193Z,8.05
2023-12-09T23:51:16.590Z,8.13
2023-12-09T23:53:43.319Z,7.55
2023-12-09T23:56:10.201Z,7.07
2023-12-09T23:58:36.817Z,6.75
